Tiempo atmosférico en la estación meteorológica de El Paso, Santa Cruz de Tenerife (844 m.)



Fecha
DESCASC
Temp. máxima en grados centígrados (hora)
DESCASC
Temp. mínima en grados centígrados (hora)
DESCASC
Temp. media en grados centígrados
DESCASC
Racha de viento máxima en m/sg (hora)
DESCASC
Velocidad máxima media en intervalos de 10 minutos(hora)
DESCASC
Precipitaciones diarias en mm
DESCASC
Precipitaciones de 00:00 a 06:00 en mm
DESCASC
Precipitaciones de 06:00 a 12:00 en mm
DESCASC
Precipitaciones de 12:00 a 18:00 en mm
DESCASC
Precipitaciones de 18:00 a 24:00 en mm
DESCASC
25-04-2019 18.5 (16:30) 5.9 (06:10) 12.2 7.5 (23:10) 3.89 (21:20) 0 0 0 0 0
24-04-2019 16.6 (11:10) 7.1 (07:40) 11.9 6.39 (13:20) 3.89 (13:30) 0 0 0 0 0
23-04-2019 18.5 (12:50) 8.6 (08:00) 13.6 10.28 (13:40) 5.56 (13:20) 0 0 0 0 0
22-04-2019 19.7 (15:30) 7.3 (00:00) 13.5 7.22 (15:30) 3.89 (15:30) 0 0 0 0 0
21-04-2019 17.4 (15:10) 8.3 (00:00) 12.8 12.22 (01:50) 6.11 (02:10) 0 0 0 0 0
20-04-2019 14.2 (14:00) 8.3 (00:00) 11.3 11.94 (11:50) 6.67 (23:30) 0 0 0 0 0
19-04-2019 16.4 (15:10) 8.2 (00:00) 12.3 14.72 (10:10) 8.89 (10:10) 0 0 0 0 0
18-04-2019 15.8 (13:40) 9.3 (00:00) 12.6 10.28 (13:30) 6.11 (16:10) 0 0 0 0 0
17-04-2019 17.9 (15:30) 8.5 (00:00) 13.2 8.61 (16:10) 5 (17:20) 2.6 0 2.4 0.2 0
16-04-2019 18 (15:00) 8.7 (00:00) 13.3 7.5 (16:20) 4.72 (19:30) 0 0 0 0 0
15-04-2019 18.1 (12:30) 7.2 (00:00) 12.7 7.78 (12:10) 4.72 (12:10) 0 0 0 0 0
14-04-2019 19.1 (13:30) 7.8 (00:00) 13.5 8.33 (14:50) 5.56 (17:20) 0 0 0 0 0
13-04-2019 18.6 (19:20) 9.8 (00:00) 14.2 15.83 (04:10) 9.44 (04:20) 0 0 0 0 0
12-04-2019 17.7 (14:30) 7.8 (00:00) 12.8 14.17 (01:10) 7.78 (00:50) 0 0 0 0 0
11-04-2019 16.4 (14:40) 9.1 (00:00) 12.8 13.33 (12:30) 7.5 (13:00) 0 0 0 0 0
10-04-2019 14.9 (16:00) 9.9 (00:00) 12.4 13.61 (00:10) 6.94 (09:30) 0 0 0 0 0
09-04-2019 16.1 (11:30) 6.8 (00:00) 11.5 11.39 (23:20) 6.67 (23:20) 1 0 0 1 0
08-04-2019 17 (14:10) 8.2 (00:00) 12.6 8.06 (17:10) 4.44 (17:40) 0 0 0 0 0
07-04-2019 15.4 (14:10) 6.8 (00:00) 11.1 6.94 (14:10) 3.89 (14:10) 0 0 0 0 0
06-04-2019 15.1 (13:30) 6.7 (00:00) 10.9 6.67 (11:50) 3.89 (14:00) 0 0 0 0 0
05-04-2019 16.2 (17:30) 6.5 (00:00) 11.4 8.89 (17:40) 4.72 (16:10) 0 0 0 0 0
04-04-2019 15.1 (17:40) 7.9 (00:00) 11.5 9.17 (18:00) 5.28 (17:40) 0.4 0.2 0 0.2 0
03-04-2019 14.7 (16:10) 5.7 (05:40) 10.2 12.22 (13:30) 7.5 (13:20) 0.6 0 0 0 0.6
02-04-2019 14.2 (16:30) 7.8 (00:00) 11 14.44 (01:10) 8.33 (01:10) 3.4 2.6 0.6 0.2 0
01-04-2019 15 (12:00) 6.4 (00:00) 10.7 12.78 (23:00) 7.22 (23:40) 19 0 0 12.6 6.4
31-03-2019 16.9 (12:50) 6.4 (00:00) 11.6 8.89 (16:10) 5 (15:10) 0 0 0 0 0
30-03-2019 15 (10:20) 5.3 (00:00) 10.2 8.61 (14:00) 5 (14:00) 2.6 0 0 2.4 0.2
29-03-2019 15 (15:30) 5 (00:00) 10 7.5 (15:30) 4.44 (13:20) 0.2 0 0.2 0 0
28-03-2019 13.7 (14:40) 6.6 (00:00) 10.1 6.39 (16:50) 3.61 (11:30) 5.4 0 0 5.4 0
27-03-2019 16.3 (12:30) 7.3 (00:00) 11.8 7.78 (12:30) 4.72 (12:30) 0 0 0 0 0

Gráficas

Temp. máximas Temp. mínimas Temp. medias Precipitaciones Rachas de viento máximas Velocidades máximas media en intervalos de 10 minutos

Datos horarios

Fecha y hora oficial Temperatura (ºC) Velocidad del viento (km/h) Dirección del viento Racha (km/h) Dirección de racha Precipitación (mm) Presión (hPa) Tendencia (hPa) Humedad (%)
2019-04-25 23:00:00 12.5 8 Este 21 Este 0 -- -- 76
2019-04-25 22:00:00 12.9 8 Este 22 Sudeste 0 -- -- 74
2019-04-25 21:00:00 13.4 7 Este 20 Este 0 -- -- 74
2019-04-25 20:00:00 14.6 9 Este 18 Este 0 -- -- 72
2019-04-25 19:00:00 16.3 6 Este 21 Oeste 0 -- -- 67
2019-04-25 18:00:00 17.7 10 Oeste 24 Oeste 0 -- -- 68
2019-04-25 17:00:00 17.6 10 Oeste 23 Sur 0 -- -- 65
2019-04-25 16:00:00 17.8 8 Oeste 21 Oeste 0 -- -- 68
2019-04-25 15:00:00 17.7 12 Oeste 23 Oeste 0 -- -- 68
2019-04-25 14:00:00 17.1 13 Oeste 23 Oeste 0 -- -- 69
2019-04-25 13:00:00 17.2 11 Oeste 21 Noroeste 0 -- -- 68
2019-04-25 12:00:00 16.9 11 Oeste 18 Oeste 0 -- -- 67
2019-04-25 11:00:00 16 8 Oeste 14 Oeste 0 -- -- 64
2019-04-25 10:00:00 14.6 4 Oeste 8 Sudoeste 0 -- -- 67
2019-04-25 09:00:00 8.7 2 Este 9 Este 0 -- -- 82
2019-04-25 08:00:00 6.3 4 Este 5 Este 0 -- -- 93
2019-04-25 07:00:00 6.1 2 Sudeste 4 Sudeste 0 -- -- 90
2019-04-25 06:00:00 6 2 Este 7 Este 0 -- -- 85
2019-04-25 05:00:00 6.2 5 Este 7 Este 0 -- -- 88
2019-04-25 04:00:00 7.2 3 Este 10 Este 0 -- -- 84
2019-04-25 03:00:00 7.4 2 Este 8 Este 0 -- -- 86
2019-04-25 02:00:00 7.8 3 Sudeste 8 Este 0 -- -- 87
2019-04-25 01:00:00 8.6 3 Este 8 Este 0 -- -- 87
2019-04-25 00:00:00 9.2 4 Este 7 Este 0 -- -- 87
2019-04-24 23:00:00 10.3 3 Este 4 Este 0 -- -- 85
2019-04-24 22:00:00 12 0 Calma 4 Norte 0 -- -- 81
2019-04-24 21:00:00 14.1 2 Oeste 13 Oeste 0 -- -- 76
2019-04-24 20:00:00 15.5 11 Oeste 18 Oeste 0 -- -- 72
2019-04-24 19:00:00 16.4 10 Oeste 18 Oeste 0 -- -- 71
2019-04-24 18:00:00 16 9 Oeste 18 Oeste 0 -- -- 73
2019-04-24 17:00:00 15.9 8 Oeste 17 Oeste 0 -- -- 73
2019-04-24 16:00:00 15.4 10 Oeste 22 Noroeste 0 -- -- 74
2019-04-24 15:00:00 15.7 6 Noroeste 19 Oeste 0 -- -- 76
2019-04-24 14:00:00 15.5 12 Oeste 23 Oeste 0 -- -- 74
2019-04-24 13:00:00 16 10 Oeste 20 Oeste 0 -- -- 74
2019-04-24 12:00:00 15.5 12 Oeste 22 Oeste 0 -- -- 74
2019-04-24 11:00:00 16.4 9 Oeste 18 Sudoeste 0 -- -- 67
2019-04-24 10:00:00 14.4 5 Sudoeste 11 Oeste 0 -- -- 73
2019-04-24 09:00:00 9.5 6 Nordeste 9 Este 0 -- -- 81
2019-04-24 08:00:00 7.7 3 Este 6 Este 0 -- -- 90
2019-04-24 07:00:00 7.7 5 Este 9 Este 0 -- -- 83
2019-04-24 06:00:00 7.3 5 Este 9 Este 0 -- -- 87
2019-04-24 05:00:00 8.5 6 Este 11 Este 0 -- -- 87
2019-04-24 04:00:00 10.4 4 Este 7 Este 0 -- -- 85
2019-04-24 03:00:00 10.4 2 Nordeste 6 Nordeste 0 -- -- 86
2019-04-24 02:00:00 9 5 Este 8 Este 0 -- -- 88
2019-04-24 01:00:00 9.1 5 Este 9 Este 0 -- -- 86
2019-04-24 00:00:00 9.9 3 Este 8 Este 0 -- -- 84
2019-04-23 23:00:00 10.8 3 Este 6 Este 0 -- -- 82
2019-04-23 22:00:00 11.6 3 Nordeste 8 Norte 0 -- -- 81
2019-04-23 21:00:00 13.7 6 Oeste 14 Oeste 0 -- -- 72
2019-04-23 20:00:00 15.7 9 Oeste 25 Oeste 0 -- -- 66
2019-04-23 19:00:00 16.8 8 Noroeste 21 Oeste 0 -- -- 47
2019-04-23 18:00:00 16.6 10 Sudoeste 30 Oeste 0 -- -- 64
2019-04-23 17:00:00 17 11 Oeste 34 Noroeste 0 -- -- 57
2019-04-23 16:00:00 17.4 12 Sudoeste 30 Oeste 0 -- -- 53
2019-04-23 15:00:00 18 14 Oeste 33 Oeste 0 -- -- 60
2019-04-23 14:00:00 17.7 14 Oeste 37 Oeste 0 -- -- 70
2019-04-23 13:00:00 18.2 16 Oeste 27 Oeste 0 -- -- 68
2019-04-23 12:00:00 15.8 10 Este 21 Sudeste 0 -- -- 72
2019-04-23 11:00:00 15.7 3 Noroeste 11 Oeste 0 -- -- 74
2019-04-23 10:00:00 14.2 3 Noroeste 9 Noroeste 0 -- -- 83
2019-04-23 09:00:00 10.9 2 Sudoeste 8 Este 0 -- -- 92
2019-04-23 08:00:00 8.6 4 Sudeste 10 Este 0 -- -- 90
2019-04-23 07:00:00 9.9 3 Este 11 Este 0 -- -- 93
2019-04-23 06:00:00 9.3 3 Nordeste 13 Este 0 -- -- 92
2019-04-23 05:00:00 8.8 5 Este 15 Este 0 -- -- 91
2019-04-23 04:00:00 9.7 5 Este 14 Este 0 -- -- 91
2019-04-23 03:00:00 9.9 5 Este 12 Este 0 -- -- 96
2019-04-23 02:00:00 10.5 2 Norte 9 Oeste 0 -- -- 92
2019-04-23 01:00:00 10 3 Este 9 Este 0 -- -- 76
2019-04-23 00:00:00 10.9 4 Este 13 Nordeste 0 -- -- 74
2019-04-22 23:00:00 12 2 Este 8 Nordeste 0 -- -- 74
2019-04-22 22:00:00 13.8 2 Oeste 8 Norte 0 -- -- 85
2019-04-22 21:00:00 15.2 6 Sudoeste 18 Oeste 0 -- -- 81
2019-04-22 20:00:00 17.4 7 Oeste 18 Oeste 0 -- -- 73
2019-04-22 19:00:00 18.4 9 Oeste 20 Oeste 0 -- -- 71
2019-04-22 18:00:00 18.5 8 Oeste 23 Oeste 0 -- -- 72
2019-04-22 17:00:00 19 13 Oeste 23 Oeste 0 -- -- 70
2019-04-22 16:00:00 19.5 10 Oeste 26 Oeste 0 -- -- 67
2019-04-22 15:00:00 19.2 13 Oeste 22 Oeste 0 -- -- 68
2019-04-22 14:00:00 18.9 11 Oeste 22 Oeste 0 -- -- 70
2019-04-22 13:00:00 18.7 14 Oeste 22 Oeste 0 -- -- 69
2019-04-22 12:00:00 18.1 12 Oeste 22 Oeste 0 -- -- 70
2019-04-22 11:00:00 18.6 7 Oeste 15 Oeste 0 -- -- 66
2019-04-22 10:00:00 16.5 4 Oeste 14 Oeste 0 -- -- 67
2019-04-22 09:00:00 11 5 Oeste 16 Nordeste 0 -- -- 70
2019-04-22 08:00:00 7.9 3 Este 15 Este 0 -- -- 81
2019-04-22 07:00:00 7.5 5 Este 15 Este 0 -- -- 73
2019-04-22 06:00:00 7.3 5 Este 11 Este 0 -- -- 81
2019-04-22 05:00:00 8.1 4 Este 10 Este 0 -- -- 82
2019-04-22 04:00:00 8.8 4 Sudeste 21 Nordeste 0 -- -- 72
2019-04-22 03:00:00 8.7 5 Sudeste 20 Nordeste 0 -- -- 75
2019-04-22 02:00:00 9.3 3 Sudeste 14 Este 0 -- -- 85
2019-04-22 01:00:00 9.1 7 Este 13 Este 0 -- -- 86
2019-04-22 00:00:00 9.6 5 Este 11 Nordeste 0 -- -- 87
2019-04-21 23:00:00 10.5 5 Este 9 Este 0 -- -- 87
2019-04-21 22:00:00 12 3 Este 7 Oeste 0 -- -- 83
2019-04-21 21:00:00 13.9 3 Oeste 10 Oeste 0 -- -- 79
2019-04-21 20:00:00 15.4 6 Oeste 13 Noroeste 0 -- -- 76
2019-04-21 19:00:00 16 9 Oeste 19 Oeste 0 -- -- 75
2019-04-21 18:00:00 17.2 13 Oeste 23 Oeste 0 -- -- 70
2019-04-21 17:00:00 17 9 Oeste 26 Oeste 0 -- -- 69
2019-04-21 16:00:00 17.3 11 Oeste 30 Oeste 0 -- -- 68
2019-04-21 15:00:00 17.2 11 Este 30 Este 0 -- -- 67
2019-04-21 14:00:00 16.6 13 Sudeste 29 Sudeste 0 -- -- 69
2019-04-21 13:00:00 14.8 13 Sudeste 30 Sudeste 0 -- -- 77
2019-04-21 12:00:00 15 13 Sudeste 29 Sudeste 0 -- -- 74
2019-04-21 11:00:00 14.9 5 Sudeste 18 Sudeste 0 -- -- 71
2019-04-21 10:00:00 13.8 3 Este 8 Este 0 -- -- 72
2019-04-21 09:00:00 9.9 3 Este 9 Nordeste 0 -- -- 83
2019-04-21 08:00:00 8.4 5 Este 8 Nordeste 0 -- -- 85
2019-04-21 07:00:00 10 4 Norte 37 Nordeste 0 -- -- 79
2019-04-21 06:00:00 11.2 21 Este 41 Este 0 -- -- 75
2019-04-21 05:00:00 10.3 12 Este 29 Este 0 -- -- 81
2019-04-21 04:00:00 10.9 13 Este 34 Este 0 -- -- 80
2019-04-21 03:00:00 11.1 13 Este 40 Este 0 -- -- 77
2019-04-21 02:00:00 11.5 19 Este 44 Este 0 -- -- 79
2019-04-21 01:00:00 11.6 15 Este 40 Este 0 -- -- 83
2019-04-21 00:00:00 12.2 17 Este 41 Este 0 -- -- 73
2019-04-20 23:00:00 11.9 20 Este 42 Este 0 -- -- 75
2019-04-20 22:00:00 12 19 Este 33 Este 0 -- -- 77
2019-04-20 21:00:00 12.2 4 Este 11 Este 0 -- -- 79
2019-04-20 20:00:00 12.4 5 Este 15 Este 0 -- -- 76
2019-04-20 19:00:00 12.3 8 Sudeste 27 Sudeste 0 -- -- 77
2019-04-20 18:00:00 12.2 10 Sudeste 25 Sudeste 0 -- -- 82
2019-04-20 17:00:00 12.5 14 Sudeste 34 Este 0 -- -- 84
2019-04-20 16:00:00 12.9 19 Este 34 Este 0 -- -- 81
2019-04-20 15:00:00 12.8 19 Este 33 Este 0 -- -- 82
2019-04-20 14:00:00 14.2 15 Este 39 Sudeste 0 -- -- 72
2019-04-20 13:00:00 13.4 18 Este 39 Este 0 -- -- 72
2019-04-20 12:00:00 13 18 Este 43 Este 0 -- -- 80
2019-04-20 11:00:00 12.5 16 Sudeste 35 Sudeste 0 -- -- 78
2019-04-20 10:00:00 12.3 17 Este 32 Este 0 -- -- 81
2019-04-20 09:00:00 11.1 16 Este 31 Este 0 -- -- 82
2019-04-20 08:00:00 9 4 Este 11 Este 0 -- -- 86
2019-04-20 07:00:00 9.3 5 Sudeste 11 Sudeste 0 -- -- 86
2019-04-20 06:00:00 8.7 3 Sudeste 8 Este 0 -- -- 93
2019-04-20 05:00:00 8.6 5 Este 8 Este 0 -- -- 89
2019-04-20 04:00:00 9.3 3 Nordeste 10 Este 0 -- -- 88
2019-04-20 03:00:00 9.6 4 Este 10 Este 0 -- -- 86
2019-04-20 02:00:00 10.6 6 Este 10 Este 0 -- -- 83
2019-04-20 01:00:00 11.6 3 Nordeste 8 Este 0 -- -- 85
2019-04-20 00:00:00 12.5 4 Noroeste 8 Noroeste 0 -- -- 87
2019-04-19 23:00:00 13 3 Oeste 11 Oeste 0 -- -- 84
2019-04-19 22:00:00 13.3 4 Norte 12 Norte 0 -- -- 83
2019-04-19 21:00:00 13.7 6 Sudoeste 21 Oeste 0 -- -- 83
2019-04-19 20:00:00 15.3 6 Oeste 27 Este 0 -- -- 75
2019-04-19 19:00:00 14.9 14 Este 28 Este 0 -- -- 73
2019-04-19 18:00:00 15.2 16 Sudeste 33 Este 0 -- -- 72
2019-04-19 17:00:00 15.1 19 Este 41 Este 0 -- -- 73
2019-04-19 16:00:00 16.4 19 Este 35 Sudeste 0 -- -- 67
2019-04-19 15:00:00 16.2 19 Este 36 Este 0 -- -- 69
2019-04-19 14:00:00 15.4 21 Este 42 Este 0 -- -- 69
2019-04-19 13:00:00 14.8 26 Este 48 Este 0 -- -- 69
2019-04-19 12:00:00 14.8 26 Este 46 Este 0 -- -- 68
2019-04-19 11:00:00 13.8 26 Sudeste 53 Este 0 -- -- 72
2019-04-19 10:00:00 12.8 26 Sudeste 50 Este 0 -- -- 80
2019-04-19 09:00:00 11.6 10 Sudeste 40 Este 0 -- -- 81
2019-04-19 08:00:00 9.4 10 Nordeste 32 Sudeste 0 -- -- 90
2019-04-19 07:00:00 10.7 29 Este 47 Este 0 -- -- 83
2019-04-19 06:00:00 10.5 11 Este 33 Sudeste 0 -- -- 82
2019-04-19 05:00:00 9.6 6 Este 27 Este 0 -- -- 85
2019-04-19 04:00:00 8.3 8 Nordeste 17 Nordeste 0 -- -- 88
2019-04-19 03:00:00 8.3 3 Este 8 Este 0 -- -- 88
2019-04-19 02:00:00 9.2 3 Nordeste 8 Sudeste 0 -- -- 86
2019-04-19 01:00:00 9.5 3 Nordeste 7 Nordeste 0 -- -- 85
2019-04-19 00:00:00 10.1 2 Este 10 Este 0 -- -- 84
2019-04-18 23:00:00 10.8 7 Este 20 Este 0 -- -- 81
2019-04-18 22:00:00 11.5 12 Sudeste 26 Sudeste 0 -- -- 77
2019-04-18 21:00:00 11.7 14 Este 36 Este 0 -- -- 77
2019-04-18 20:00:00 12.4 10 Este 26 Sudeste 0 -- -- 78
2019-04-18 19:00:00 13.2 16 Este 27 Este 0 -- -- 76
2019-04-18 18:00:00 14.3 17 Este 36 Este 0 -- -- 71
2019-04-18 17:00:00 15.1 17 Este 36 Este 0 -- -- 69
2019-04-18 16:00:00 13.7 21 Este 33 Sudeste 0 -- -- 78
2019-04-18 15:00:00 14.5 18 Este 31 Este 0 -- -- 74
2019-04-18 14:00:00 15.5 18 Este 37 Este 0 -- -- 71
2019-04-18 13:00:00 14.7 22 Sudeste 34 Este 0 -- -- 72
2019-04-18 12:00:00 12.8 8 Sudeste 22 Este 0 -- -- 80
2019-04-18 11:00:00 13.5 13 Este 26 Este 0 -- -- 75
2019-04-18 10:00:00 13.3 7 Sudeste 19 Este 0 -- -- 72
2019-04-18 09:00:00 10.6 7 Este 15 Sudeste 0 -- -- 82
2019-04-18 08:00:00 9.7 7 Sudeste 14 Sudeste 0 -- -- 84
2019-04-18 07:00:00 10.4 8 Sudeste 17 Sudeste 0 -- -- 81
2019-04-18 06:00:00 10.7 6 Sudeste 10 Sudeste 0 -- -- 83
2019-04-18 05:00:00 9.9 3 Este 4 Este 0 -- -- 89
2019-04-18 04:00:00 9.4 3 Este 6 Este 0 -- -- 87
2019-04-18 03:00:00 10.3 3 Este 5 Este 0 -- -- 85
2019-04-18 02:00:00 11.7 0 Calma 6 Norte 0 -- -- 86
2019-04-18 01:00:00 11.6 0 Calma 4 Noroeste 0 -- -- 87
2019-04-18 00:00:00 11.8 2 Oeste 13 Oeste 0 -- -- 86
2019-04-17 23:00:00 12.3 4 Nordeste 17 Este 0 -- -- 80
2019-04-17 22:00:00 12.9 7 Sudeste 19 Sudeste 0 -- -- 78
2019-04-17 21:00:00 14.2 10 Sudeste 17 Este 0 -- -- 73
2019-04-17 20:00:00 16 12 Oeste 26 Oeste 0 -- -- 63
2019-04-17 19:00:00 17.4 12 Oeste 31 Oeste 0 -- -- 60
2019-04-17 18:00:00 17.3 17 Oeste 30 Oeste 0 -- -- 56
2019-04-17 17:00:00 17.7 13 Oeste 31 Oeste 0 -- -- 56
2019-04-17 16:00:00 17.6 14 Oeste 29 Oeste 0 -- -- 60
2019-04-17 15:00:00 17.6 14 Oeste 28 Oeste 0 -- -- 61
2019-04-17 14:00:00 17.1 15 Oeste 29 Oeste 0.2 -- -- 66
2019-04-17 13:00:00 17.1 11 Sudoeste 25 Sur 0 -- -- 73
2019-04-17 12:00:00 14.8 8 Oeste 21 Oeste 0 -- -- 84
2019-04-17 11:00:00 14.1 12 Oeste 19 Oeste 0 -- -- 88
2019-04-17 10:00:00 13.1 8 Oeste 17 Oeste 0 -- -- 93
2019-04-17 09:00:00 12.5 7 Oeste 14 Oeste 1 -- -- 97
2019-04-17 08:00:00 11.5 2 Nordeste 6 Este 1.2 -- -- 96
2019-04-17 07:00:00 10.9 2 Nordeste 6 Este 0.2 -- -- 95
2019-04-17 06:00:00 10.7 0 Calma 4 Nordeste 0 -- -- 91
2019-04-17 05:00:00 10.2 2 Nordeste 5 Nordeste 0 -- -- 89
2019-04-17 04:00:00 9.2 0 Calma 7 Este 0 -- -- 90
2019-04-17 03:00:00 9.1 3 Este 8 Este 0 -- -- 89
2019-04-17 02:00:00 8.5 4 Este 6 Este 0 -- -- 88
2019-04-17 01:00:00 8.8 6 Este 9 Este 0 -- -- 83
2019-04-17 00:00:00 9 5 Este 10 Este 0 -- -- 83
2019-04-16 23:00:00 9.9 4 Este 9 Este 0 -- -- 75
2019-04-16 22:00:00 11.8 3 Sur 21 Oeste 0 -- -- 78
2019-04-16 21:00:00 12.9 15 Oeste 22 Oeste 0 -- -- 78
2019-04-16 20:00:00 13.9 13 Oeste 25 Oeste 0 -- -- 77
2019-04-16 19:00:00 15.5 15 Oeste 25 Oeste 0 -- -- 71
2019-04-16 18:00:00 16.5 14 Oeste 27 Oeste 0 -- -- 67
2019-04-16 17:00:00 17.3 14 Oeste 27 Oeste 0 -- -- 62
2019-04-16 16:00:00 17.6 14 Oeste 27 Oeste 0 -- -- 60
2019-04-16 15:00:00 18 15 Oeste 26 Oeste 0 -- -- 59
2019-04-16 14:00:00 17.7 13 Oeste 26 Oeste 0 -- -- 61
2019-04-16 13:00:00 17.3 13 Oeste 23 Oeste 0 -- -- 61
2019-04-16 12:00:00 16.8 10 Oeste 21 Oeste 0 -- -- 62
2019-04-16 11:00:00 16.3 10 Oeste 17 Oeste 0 -- -- 67
2019-04-16 10:00:00 15.4 3 Oeste 10 Este 0 -- -- 73
2019-04-16 09:00:00 9.8 6 Este 10 Este 0 -- -- 91
2019-04-16 08:00:00 8.7 3 Este 8 Este 0 -- -- 92
2019-04-16 07:00:00 8.8 5 Este 8 Este 0 -- -- 90
2019-04-16 06:00:00 10 4 Este 8 Este 0 -- -- 87
2019-04-16 05:00:00 12.3 3 Este 7 Nordeste 0 -- -- 85
2019-04-16 04:00:00 13 0 Calma 6 Sudoeste 0 -- -- 87
2019-04-16 03:00:00 13.1 2 Sur 5 Oeste 0 -- -- 88
2019-04-16 02:00:00 12.9 0 Calma 3 Nordeste 0 -- -- 89
2019-04-16 01:00:00 12.6 2 Este 5 Este 0 -- -- 88
2019-04-16 00:00:00 12.6 4 Este 6 Este 0 -- -- 86
2019-04-15 23:00:00 13.9 2 Oeste 8 Oeste 0 -- -- 89
2019-04-15 22:00:00 14.1 4 Oeste 8 Oeste 0 -- -- 88
2019-04-15 21:00:00 14.4 5 Oeste 10 Oeste 0 -- -- 87
2019-04-15 20:00:00 14.8 6 Oeste 10 Oeste 0 -- -- 86
2019-04-15 19:00:00 15 3 Oeste 12 Oeste 0 -- -- 85
2019-04-15 18:00:00 15.5 6 Oeste 18 Noroeste 0 -- -- 83
2019-04-15 17:00:00 16.3 10 Oeste 16 Oeste 0 -- -- 80
2019-04-15 16:00:00 16 7 Oeste 16 Oeste 0 -- -- 82
2019-04-15 15:00:00 15.8 7 Oeste 18 Oeste 0 -- -- 83
2019-04-15 14:00:00 16.1 11 Oeste 24 Sudeste 0 -- -- 82
2019-04-15 13:00:00 16.8 8 Sudoeste 28 Este 0 -- -- 79
2019-04-15 12:00:00 16.9 11 Sudeste 23 Este 0 -- -- 78
2019-04-15 11:00:00 17.3 7 Oeste 12 Noroeste 0 -- -- 68
2019-04-15 10:00:00 14.7 4 Oeste 8 Oeste 0 -- -- 73
2019-04-15 09:00:00 9.7 4 Este 8 Este 0 -- -- 86
2019-04-15 08:00:00 7.3 4 Este 8 Este 0 -- -- 84
2019-04-15 07:00:00 7.8 4 Este 9 Este 0 -- -- 79
2019-04-15 06:00:00 8.1 4 Este 8 Este 0 -- -- 78
2019-04-15 05:00:00 8.5 3 Sudeste 6 Sudeste 0 -- -- 77
2019-04-15 04:00:00 7.8 3 Este 9 Este 0 -- -- 75
2019-04-15 03:00:00 8.3 5 Este 9 Este 0 -- -- 75
2019-04-15 02:00:00 9.1 3 Sudeste 12 Este 0 -- -- 75
2019-04-15 01:00:00 9.6 3 Norte 11 Nordeste 0 -- -- 67
2019-04-15 00:00:00 10.2 6 Este 12 Sudeste 0 -- -- 66
2019-04-14 23:00:00 10.9 2 Este 11 Nordeste 0 -- -- 73
2019-04-14 22:00:00 12.3 6 Este 11 Este 0 -- -- 76
2019-04-14 21:00:00 14.8 8 Oeste 12 Oeste 0 -- -- 79
2019-04-14 20:00:00 16.2 4 Este 10 Sudoeste 0 -- -- 74
2019-04-14 19:00:00 16.3 5 Sudoeste 18 Oeste 0 -- -- 75
2019-04-14 18:00:00 16.5 8 Sudoeste 29 Oeste 0 -- -- 72
2019-04-14 17:00:00 17.7 5 Sudoeste 27 Oeste 0 -- -- 64
2019-04-14 16:00:00 17.7 6 Sur 26 Oeste 0 -- -- 69
2019-04-14 15:00:00 17.8 16 Oeste 30 Oeste 0 -- -- 66
2019-04-14 14:00:00 18.8 13 Oeste 22 Oeste 0 -- -- 58
2019-04-14 13:00:00 18.2 10 Oeste 21 Oeste 0 -- -- 63
2019-04-14 12:00:00 17.4 13 Oeste 22 Oeste 0 -- -- 66
2019-04-14 11:00:00 17.4 9 Oeste 20 Oeste 0 -- -- 63
2019-04-14 10:00:00 15.8 0 Calma 14 Oeste 0 -- -- 49
2019-04-14 09:00:00 9.9 4 Sudeste 10 Este 0 -- -- 63
2019-04-14 08:00:00 8 4 Este 8 Sudeste 0 -- -- 62
2019-04-14 07:00:00 9.6 5 Este 14 Este 0 -- -- 53
2019-04-14 06:00:00 12.6 10 Sudeste 17 Sudeste 0 -- -- 38
2019-04-14 05:00:00 10.2 6 Nordeste 14 Nordeste 0 -- -- 52
2019-04-14 04:00:00 9.2 8 Este 11 Este 0 -- -- 67
2019-04-14 03:00:00 9.6 5 Este 12 Este 0 -- -- 61
2019-04-14 02:00:00 9.5 8 Este 12 Este 0 -- -- 70
2019-04-14 01:00:00 11.6 4 Sudeste 12 Sudeste 0 -- -- 68
2019-04-14 00:00:00 10.3 4 Este 9 Este 0 -- -- 82
2019-04-13 23:00:00 11.4 0 Calma 11 Este 0 -- -- 78
2019-04-13 22:00:00 12.6 2 Este 6 Sudeste 0 -- -- 76
2019-04-13 21:00:00 14.9 3 Oeste 13 Oeste 0 -- -- 79
2019-04-13 20:00:00 16.9 6 Oeste 28 Oeste 0 -- -- 71
2019-04-13 19:00:00 18.3 17 Sudeste 31 Este 0 -- -- 35
2019-04-13 18:00:00 18.1 10 Oeste 39 Este 0 -- -- 56
2019-04-13 17:00:00 18.3 11 Sudeste 39 Este 0 -- -- 57
2019-04-13 16:00:00 18.1 14 Sudoeste 52 Sur 0 -- -- 67
2019-04-13 15:00:00 16.3 26 Este 43 Este 0 -- -- 73
2019-04-13 14:00:00 17.2 21 Sudeste 55 Sudeste 0 -- -- 67
2019-04-13 13:00:00 16.7 25 Este 48 Este 0 -- -- 67
2019-04-13 12:00:00 15.9 23 Sudeste 52 Sudeste 0 -- -- 67
2019-04-13 11:00:00 14.2 30 Sudeste 50 Este 0 -- -- 76
2019-04-13 10:00:00 13.2 25 Sudeste 42 Este 0 -- -- 79
2019-04-13 09:00:00 11.2 29 Este 49 Este 0 -- -- 83
2019-04-13 08:00:00 11.2 25 Sudeste 48 Este 0 -- -- 77
2019-04-13 07:00:00 11 30 Sudeste 51 Sudeste 0 -- -- 75
2019-04-13 06:00:00 11.7 30 Sudeste 49 Este 0 -- -- 72
2019-04-13 05:00:00 10.4 30 Sudeste 57 Este 0 -- -- 86
2019-04-13 04:00:00 10.7 32 Este 57 Este 0 -- -- 85
2019-04-13 03:00:00 10.9 32 Sudeste 51 Sudeste 0 -- -- 82
2019-04-13 02:00:00 11 29 Sudeste 49 Este 0 -- -- 79
2019-04-13 01:00:00 10.1 6 Este 26 Este 0 -- -- 77
2019-04-13 00:00:00 10.1 3 Oeste 9 Norte 0 -- -- 89
2019-04-12 23:00:00 11.2 2 Oeste 15 Oeste 0 -- -- 88
2019-04-12 22:00:00 12.2 4 Noroeste 19 Sudeste 0 -- -- 85
2019-04-12 21:00:00 12.9 3 Noroeste 13 Oeste 0 -- -- 81
2019-04-12 20:00:00 15.4 7 Oeste 19 Oeste 0 -- -- 72
2019-04-12 19:00:00 16.1 13 Oeste 36 Sudeste 0 -- -- 70
2019-04-12 18:00:00 15 21 Este 39 Sudeste 0 -- -- 64
2019-04-12 17:00:00 14.7 23 Sudeste 48 Sudeste 0 -- -- 69
2019-04-12 16:00:00 15.8 10 Sudeste 24 Sudeste 0 -- -- 68
2019-04-12 15:00:00 17.6 8 Nordeste 39 Este 0 -- -- 59
2019-04-12 14:00:00 16.9 20 Este 39 Este 0 -- -- 61
2019-04-12 13:00:00 15.5 21 Este 45 Sudeste 0 -- -- 68
2019-04-12 12:00:00 14.5 22 Este 48 Este 0 -- -- 72
2019-04-12 11:00:00 13.2 23 Sudeste 42 Este 0 -- -- 72
2019-04-12 10:00:00 12.3 24 Sudeste 42 Este 0 -- -- 74
2019-04-12 09:00:00 8.2 5 Este 14 Este 0 -- -- 79
2019-04-12 08:00:00 9 10 Nordeste 27 Este 0 -- -- 75
2019-04-12 07:00:00 9.4 21 Este 37 Este 0 -- -- 85
2019-04-12 06:00:00 9.3 9 Este 45 Este 0 -- -- 80
2019-04-12 05:00:00 9.4 18 Este 35 Este 0 -- -- 78
2019-04-12 04:00:00 9.5 15 Este 38 Este 0 -- -- 79
2019-04-12 03:00:00 9.4 10 Este 35 Este 0 -- -- 83
2019-04-12 02:00:00 10.1 10 Este 51 Nordeste 0 -- -- 81
2019-04-12 01:00:00 10.7 28 Este 46 Sudeste 0 -- -- 73
2019-04-12 00:00:00 10.3 6 Nordeste 31 Este 0 -- -- 79
2019-04-11 23:00:00 10.3 3 Este 8 Nordeste 0 -- -- 88
2019-04-11 22:00:00 11 0 Calma 20 Sudeste 0 -- -- 84
2019-04-11 21:00:00 12.5 0 Calma 18 Sudeste 0 -- -- 78
2019-04-11 20:00:00 14.7 10 Oeste 23 Oeste 0 -- -- 73
2019-04-11 19:00:00 14.1 14 Sudeste 33 Sudeste 0 -- -- 71
2019-04-11 18:00:00 14.8 17 Sudeste 34 Sudeste 0 -- -- 71
2019-04-11 17:00:00 15.5 18 Este 40 Sudeste 0 -- -- 67
2019-04-11 16:00:00 15.9 22 Sudeste 37 Este 0 -- -- 64
2019-04-11 15:00:00 15.6 23 Sudeste 42 Este 0 -- -- 66
2019-04-11 14:00:00 15.5 24 Este 44 Este 0 -- -- 65
2019-04-11 13:00:00 14.8 27 Este 48 Sudeste 0 -- -- 67
2019-04-11 12:00:00 14.1 25 Este 40 Este 0 -- -- 66
2019-04-11 11:00:00 13.5 21 Este 41 Este 0 -- -- 67
2019-04-11 10:00:00 11.8 19 Este 33 Este 0 -- -- 72
2019-04-11 09:00:00 9.7 19 Este 45 Este 0 -- -- 82
2019-04-11 08:00:00 9.1 8 Nordeste 25 Este 0 -- -- 80
2019-04-11 07:00:00 9.3 13 Este 31 Este 0 -- -- 79
2019-04-11 06:00:00 9.3 17 Sudeste 32 Este 0 -- -- 82
2019-04-11 05:00:00 9.1 10 Este 30 Este 0 -- -- 81
2019-04-11 04:00:00 9.3 8 Este 38 Este 0 -- -- 82
2019-04-11 03:00:00 9.3 9 Este 37 Este 0 -- -- 81
2019-04-11 02:00:00 10.2 19 Este 40 Este 0 -- -- 80
2019-04-11 01:00:00 10.2 19 Este 40 Este 0 -- -- 75
2019-04-11 00:00:00 10 18 Este 35 Este 0 -- -- 78
2019-04-10 23:00:00 10.3 17 Este 39 Este 0 -- -- 82
2019-04-10 22:00:00 10.8 23 Este 42 Este 0 -- -- 81
2019-04-10 21:00:00 10.9 16 Este 36 Este 0 -- -- 75
2019-04-10 20:00:00 12.1 21 Este 38 Este 0 -- -- 71
2019-04-10 19:00:00 13.2 21 Este 40 Este 0 -- -- 68
2019-04-10 18:00:00 14 22 Este 36 Este 0 -- -- 69
2019-04-10 17:00:00 14.1 22 Este 37 Este 0 -- -- 70
2019-04-10 16:00:00 14.9 18 Este 32 Este 0 -- -- 70
2019-04-10 15:00:00 14.1 14 Este 30 Sudeste 0 -- -- 72
2019-04-10 14:00:00 13.9 18 Sudeste 34 Este 0 -- -- 75
2019-04-10 13:00:00 14.2 18 Este 37 Este 0 -- -- 76
2019-04-10 12:00:00 13.8 21 Este 44 Este 0 -- -- 77
2019-04-10 11:00:00 13.8 21 Este 40 Este 0 -- -- 71
2019-04-10 10:00:00 12.6 23 Este 43 Este 0 -- -- 70
2019-04-10 09:00:00 10.6 23 Este 42 Este 0 -- -- 75
2019-04-10 08:00:00 10 19 Este 43 Este 0 -- -- 82
2019-04-10 07:00:00 10.2 16 Este 39 Este 0 -- -- 79
2019-04-10 06:00:00 9.9 13 Este 40 Este 0 -- -- 84
2019-04-10 05:00:00 10.4 20 Este 35 Este 0 -- -- 84
2019-04-10 04:00:00 10.6 20 Este 42 Este 0 -- -- 85
2019-04-10 03:00:00 10.6 20 Este 40 Este 0 -- -- 88
2019-04-10 02:00:00 10.5 18 Este 35 Sudeste 0 -- -- 87
2019-04-10 01:00:00 10.8 21 Este 49 Este 0 -- -- 87
2019-04-10 00:00:00 11.3 22 Este 41 Este 0 -- -- 85
2019-04-09 23:00:00 11.1 22 Este 37 Este 0 -- -- 89
2019-04-09 22:00:00 11.3 22 Este 37 Sudeste 0 -- -- 91
2019-04-09 21:00:00 11.8 10 Este 28 Este 0 -- -- 91
2019-04-09 20:00:00 12.5 6 Este 28 Este 0 -- -- 87
2019-04-09 19:00:00 12.6 12 Este 34 Este 0 -- -- 87
2019-04-09 18:00:00 13.5 15 Este 35 Este 0 -- -- 86
2019-04-09 17:00:00 14.4 7 Sudeste 21 Este 0.6 -- -- 86
2019-04-09 16:00:00 15 7 Oeste 15 Este 0.2 -- -- 81
2019-04-09 15:00:00 15.4 5 Nordeste 22 Este 0.2 -- -- 79
2019-04-09 14:00:00 15.3 6 Sudeste 15 Oeste 0 -- -- 74
2019-04-09 13:00:00 14.6 9 Oeste 18 Oeste 0 -- -- 75
2019-04-09 12:00:00 15.7 8 Este 26 Sudeste 0 -- -- 68
2019-04-09 11:00:00 14.5 8 Oeste 16 Sudoeste 0 -- -- 71
2019-04-09 10:00:00 12.9 4 Noroeste 13 Este 0 -- -- 79
2019-04-09 09:00:00 7.4 3 Este 9 Nordeste 0 -- -- 87
2019-04-09 08:00:00 7.3 3 Sudeste 9 Este 0 -- -- 90
2019-04-09 07:00:00 7.7 3 Este 12 Este 0 -- -- 88
2019-04-09 06:00:00 7.3 3 Sudeste 8 Este 0 -- -- 92
2019-04-09 05:00:00 6.9 4 Sudeste 7 Este 0 -- -- 88
2019-04-09 04:00:00 7.1 3 Este 9 Oeste 0 -- -- 89
2019-04-09 03:00:00 7.1 5 Este 9 Sudeste 0 -- -- 90
2019-04-09 02:00:00 6.9 4 Este 9 Este 0 -- -- 89
2019-04-09 01:00:00 7.4 5 Este 9 Este 0 -- -- 85
2019-04-09 00:00:00 8.4 3 Nordeste 9 Este 0 -- -- 86
2019-04-08 23:00:00 9.1 4 Este 6 Este 0 -- -- 82
2019-04-08 22:00:00 9.8 4 Este 7 Este 0 -- -- 79
2019-04-08 21:00:00 12.1 0 Calma 8 Oeste 0 -- -- 74
2019-04-08 20:00:00 13.5 4 Noroeste 19 Noroeste 0 -- -- 70
2019-04-08 19:00:00 14.4 9 Oeste 19 Oeste 0 -- -- 66
2019-04-08 18:00:00 15.5 13 Oeste 29 Oeste 0 -- -- 62
2019-04-08 17:00:00 16.4 14 Oeste 27 Oeste 0 -- -- 61
2019-04-08 16:00:00 16.5 16 Oeste 27 Oeste 0 -- -- 60
2019-04-08 15:00:00 16.6 10 Oeste 27 Oeste 0 -- -- 60
2019-04-08 14:00:00 16.7 12 Oeste 25 Oeste 0 -- -- 59
2019-04-08 13:00:00 16.1 11 Oeste 25 Oeste 0 -- -- 61
2019-04-08 12:00:00 16.7 3 Norte 13 Este 0 -- -- 60
2019-04-08 11:00:00 14.3 5 Sudeste 10 Sur 0 -- -- 62
2019-04-08 10:00:00 12.7 6 Sudeste 12 Este 0 -- -- 70
2019-04-08 09:00:00 10.2 3 Este 8 Nordeste 0 -- -- 81
2019-04-08 08:00:00 8.7 2 Este 9 Sudeste 0 -- -- 87
2019-04-08 07:00:00 8.8 5 Este 8 Este 0 -- -- 84
2019-04-08 06:00:00 10.5 4 Este 9 Nordeste 0 -- -- 81
2019-04-08 05:00:00 10.7 4 Norte 8 Norte 0 -- -- 81
2019-04-08 04:00:00 11 2 Este 4 Este 0 -- -- 87
2019-04-08 03:00:00 11.3 0 Calma 2 Sudeste 0 -- -- 87
2019-04-08 02:00:00 11.3 0 Calma 5 Noroeste 0 -- -- 86
2019-04-08 01:00:00 11.5 0 Calma 6 Este 0 -- -- 84
2019-04-08 00:00:00 11.6 0 Calma 3 Norte 0 -- -- 84
2019-04-07 23:00:00 11.8 0 Calma 4 Oeste 0 -- -- 83
2019-04-07 22:00:00 12 3 Oeste 6 Oeste 0 -- -- 83
2019-04-07 21:00:00 12.1 2 Sudoeste 9 Oeste 0 -- -- 83
2019-04-07 20:00:00 12.5 3 Sudoeste 12 Oeste 0 -- -- 81
2019-04-07 19:00:00 12.6 6 Oeste 15 Oeste 0 -- -- 81
2019-04-07 18:00:00 12.9 9 Oeste 20 Oeste 0 -- -- 83
2019-04-07 17:00:00 13.9 7 Oeste 15 Oeste 0 -- -- 82
2019-04-07 16:00:00 13.9 6 Oeste 17 Oeste 0 -- -- 81
2019-04-07 15:00:00 14.5 10 Oeste 25 Oeste 0 -- -- 77
2019-04-07 14:00:00 15.3 13 Oeste 24 Noroeste 0 -- -- 75
2019-04-07 13:00:00 15.3 8 Oeste 16 Oeste 0 -- -- 73
2019-04-07 12:00:00 13.3 9 Oeste 14 Oeste 0 -- -- 77
2019-04-07 11:00:00 12.4 3 Sudeste 7 Sur 0 -- -- 73
2019-04-07 10:00:00 11.1 3 Nordeste 9 Nordeste 0 -- -- 80
2019-04-07 09:00:00 9.7 3 Nordeste 8 Este 0 -- -- 87
2019-04-07 08:00:00 8.6 4 Este 8 Este 0 -- -- 90
2019-04-07 07:00:00 7.8 5 Este 9 Este 0 -- -- 94
2019-04-07 06:00:00 6.9 3 Este 10 Este 0 -- -- 92
2019-04-07 05:00:00 7.3 4 Este 7 Este 0 -- -- 92
2019-04-07 04:00:00 6.9 4 Este 8 Este 0 -- -- 92
2019-04-07 03:00:00 7.4 4 Este 8 Este 0 -- -- 92
2019-04-07 02:00:00 7.9 2 Este 7 Este 0 -- -- 90
2019-04-07 01:00:00 8.5 5 Este 8 Este 0 -- -- 90
2019-04-07 00:00:00 8.9 2 Este 5 Este 0 -- -- 85
2019-04-06 23:00:00 10.2 0 Calma 5 Sudeste 0 -- -- 84
2019-04-06 22:00:00 11.5 0 Calma 7 Oeste 0 -- -- 83
2019-04-06 21:00:00 11.9 3 Oeste 11 Oeste 0 -- -- 81
2019-04-06 20:00:00 12.4 6 Oeste 12 Oeste 0 -- -- 78
2019-04-06 19:00:00 12.8 7 Oeste 23 Oeste 0 -- -- 77
2019-04-06 18:00:00 13.5 6 Oeste 18 Noroeste 0 -- -- 74
2019-04-06 17:00:00 13.7 10 Oeste 24 Oeste 0 -- -- 72
2019-04-06 16:00:00 14.4 12 Oeste 21 Oeste 0 -- -- 68
2019-04-06 15:00:00 14.2 12 Oeste 24 Oeste 0 -- -- 66
2019-04-06 14:00:00 14.9 14 Oeste 23 Oeste 0 -- -- 65
2019-04-06 13:00:00 14.4 12 Oeste 23 Oeste 0 -- -- 66
2019-04-06 12:00:00 14.3 12 Oeste 24 Oeste 0 -- -- 64
2019-04-06 11:00:00 13.5 5 Noroeste 15 Oeste 0 -- -- 69
2019-04-06 10:00:00 11.7 3 Norte 6 Noroeste 0 -- -- 80
2019-04-06 09:00:00 8.1 3 Sudeste 6 Este 0 -- -- 93
2019-04-06 08:00:00 7.2 2 Este 9 Sudeste 0 -- -- 88
2019-04-06 07:00:00 8.1 5 Sudeste 9 Sudeste 0 -- -- 89
2019-04-06 06:00:00 7.3 4 Este 8 Este 0 -- -- 90
2019-04-06 05:00:00 7 4 Sudeste 10 Sudeste 0 -- -- 88
2019-04-06 04:00:00 7.8 5 Este 8 Este 0 -- -- 87
2019-04-06 03:00:00 7.9 2 Sudeste 6 Este 0 -- -- 89
2019-04-06 02:00:00 7.3 5 Este 8 Este 0 -- -- 88
2019-04-06 01:00:00 8.6 3 Nordeste 9 Nordeste 0 -- -- 89
2019-04-06 00:00:00 9.3 4 Este 6 Sudeste 0 -- -- 88
2019-04-05 23:00:00 9.4 3 Este 5 Sudeste 0 -- -- 86
2019-04-05 22:00:00 10.3 0 Calma 10 Este 0 -- -- 81
2019-04-05 21:00:00 11.5 6 Este 23 Sudeste 0 -- -- 80
2019-04-05 20:00:00 14.4 9 Sur 22 Oeste 0 -- -- 71
2019-04-05 19:00:00 15.8 14 Oeste 28 Oeste 0 -- -- 60
2019-04-05 18:00:00 16.2 15 Oeste 32 Oeste 0 -- -- 62
2019-04-05 17:00:00 14.9 11 Sudeste 30 Sudeste 0 -- -- 71
2019-04-05 16:00:00 14.6 14 Este 28 Este 0 -- -- 72
2019-04-05 15:00:00 15.7 8 Oeste 30 Oeste 0 -- -- 69
2019-04-05 14:00:00 15.2 12 Oeste 29 Oeste 0 -- -- 68
2019-04-05 13:00:00 15.5 10 Oeste 28 Noroeste 0 -- -- 68
2019-04-05 12:00:00 14.6 9 Oeste 19 Oeste 0 -- -- 68
2019-04-05 11:00:00 14 5 Oeste 14 Oeste 0 -- -- 68
2019-04-05 10:00:00 11.4 3 Este 9 Este 0 -- -- 73
2019-04-05 09:00:00 7.2 5 Este 8 Este 0 -- -- 90
2019-04-05 08:00:00 6.8 4 Este 7 Este 0 -- -- 88
2019-04-05 07:00:00 7.1 3 Este 11 Este 0 -- -- 89
2019-04-05 06:00:00 7.4 5 Este 9 Este 0 -- -- 90
2019-04-05 05:00:00 8.9 2 Sudeste 5 Sudeste 0 -- -- 88
2019-04-05 04:00:00 9.2 0 Calma 5 Este 0 -- -- 89
2019-04-05 03:00:00 8.7 3 Sudeste 6 Nordeste 0 -- -- 90
2019-04-05 02:00:00 9.3 0 Calma 5 Nordeste 0 -- -- 87
2019-04-05 01:00:00 9.7 3 Este 9 Nordeste 0 -- -- 87
2019-04-05 00:00:00 10.3 3 Este 6 Este 0 -- -- 87
2019-04-04 23:00:00 11.2 0 Calma 8 Noroeste 0 -- -- 85
2019-04-04 22:00:00 11.7 5 Noroeste 12 Noroeste 0 -- -- 86
2019-04-04 21:00:00 12.1 2 Noroeste 17 Oeste 0 -- -- 80
2019-04-04 20:00:00 14.3 12 Oeste 23 Oeste 0 -- -- 72
2019-04-04 19:00:00 14.2 14 Oeste 30 Oeste 0 -- -- 75
2019-04-04 18:00:00 14.5 17 Oeste 33 Oeste 0 -- -- 74
2019-04-04 17:00:00 14.6 15 Oeste 30 Oeste 0 -- -- 70
2019-04-04 16:00:00 14.1 19 Oeste 31 Oeste 0 -- -- 72
2019-04-04 15:00:00 14 14 Oeste 26 Oeste 0 -- -- 74
2019-04-04 14:00:00 13.8 14 Oeste 27 Oeste 0 -- -- 79
2019-04-04 13:00:00 14 13 Oeste 22 Oeste 0.2 -- -- 80
2019-04-04 12:00:00 14 8 Oeste 19 Oeste 0 -- -- 79
2019-04-04 11:00:00 12.9 4 Sur 9 Sur 0 -- -- 86
2019-04-04 10:00:00 10.4 3 Este 9 Sur 0 -- -- 87
2019-04-04 09:00:00 9.1 3 Este 7 Sudeste 0 -- -- 94
2019-04-04 08:00:00 8.3 4 Este 12 Este 0 -- -- 93
2019-04-04 07:00:00 8.2 4 Nordeste 9 Nordeste 0 -- -- 91
2019-04-04 06:00:00 9.2 4 Sudoeste 19 Sudeste 0 -- -- 87
2019-04-04 05:00:00 8.6 4 Este 10 Este 0 -- -- 91
2019-04-04 04:00:00 8.1 4 Este 9 Este 0.2 -- -- 93
2019-04-04 03:00:00 8.3 3 Este 12 Nordeste 0 -- -- 92
2019-04-04 02:00:00 8.4 6 Este 10 Nordeste 0 -- -- 92
2019-04-04 01:00:00 8.7 0 Calma 7 Este 0 -- -- 92
2019-04-04 00:00:00 9.5 2 Sudeste 9 Sur 0 -- -- 91
2019-04-03 23:00:00 9.5 4 Oeste 24 Oeste 0.6 -- -- 92
2019-04-03 22:00:00 10.3 17 Oeste 27 Oeste 0 -- -- 90
2019-04-03 21:00:00 10.8 7 Oeste 27 Oeste 0 -- -- 87
2019-04-03 20:00:00 12.4 14 Oeste 28 Oeste 0 -- -- 80
2019-04-03 19:00:00 13 18 Oeste 36 Oeste 0 -- -- 78
2019-04-03 18:00:00 13.7 23 Oeste 38 Oeste 0 -- -- 71
2019-04-03 17:00:00 14.5 22 Oeste 35 Oeste 0 -- -- 69
2019-04-03 16:00:00 14.4 15 Oeste 37 Oeste 0 -- -- 75
2019-04-03 15:00:00 13.9 26 Oeste 40 Oeste 0 -- -- 72
2019-04-03 14:00:00 13.7 23 Oeste 44 Oeste 0 -- -- 72
2019-04-03 13:00:00 12.7 22 Oeste 36 Oeste 0 -- -- 72
2019-04-03 12:00:00 13.4 11 Oeste 28 Oeste 0 -- -- 78
2019-04-03 11:00:00 11.2 16 Oeste 24 Oeste 0 -- -- 81
2019-04-03 10:00:00 11.4 6 Oeste 18 Oeste 0 -- -- 82
2019-04-03 09:00:00 7.1 4 Sudeste 7 Este 0 -- -- 96
2019-04-03 08:00:00 6.8 3 Este 7 Este 0 -- -- 95
2019-04-03 07:00:00 6.6 3 Este 7 Nordeste 0 -- -- 96
2019-04-03 06:00:00 5.7 4 Este 9 Este 0 -- -- 95
2019-04-03 05:00:00 6.1 6 Este 8 Este 0 -- -- 94
2019-04-03 04:00:00 6.1 5 Este 9 Este 0 -- -- 94
2019-04-03 03:00:00 6.4 7 Este 10 Este 0 -- -- 94
2019-04-03 02:00:00 7 5 Sudeste 9 Este 0 -- -- 94
2019-04-03 01:00:00 7.3 4 Este 9 Este 0 -- -- 93
2019-04-03 00:00:00 7.8 4 Este 9 Este 0 -- -- 90
2019-04-02 23:00:00 10 2 Sudeste 7 Este 0 -- -- 89
2019-04-02 22:00:00 11 2 Sudoeste 9 Sudoeste 0 -- -- 89
2019-04-02 21:00:00 11.5 6 Oeste 11 Oeste 0 -- -- 87
2019-04-02 20:00:00 12 3 Oeste 22 Oeste 0 -- -- 83
2019-04-02 19:00:00 13.2 16 Oeste 22 Oeste 0 -- -- 81
2019-04-02 18:00:00 13.8 8 Oeste 19 Oeste 0 -- -- 79
2019-04-02 17:00:00 13.8 10 Oeste 24 Oeste 0 -- -- 78
2019-04-02 16:00:00 13.6 11 Oeste 21 Oeste 0 -- -- 80
2019-04-02 15:00:00 12.8 9 Oeste 18 Oeste 0 -- -- 84
2019-04-02 14:00:00 13.2 11 Oeste 20 Oeste 0 -- -- 82
2019-04-02 13:00:00 12.9 8 Oeste 17 Oeste 0.2 -- -- 84
2019-04-02 12:00:00 12.2 9 Oeste 16 Oeste 0 -- -- 82
2019-04-02 11:00:00 12.6 2 Este 5 Norte 0 -- -- 78
2019-04-02 10:00:00 10.2 2 Nordeste 7 Nordeste 0 -- -- 85
2019-04-02 09:00:00 9.3 0 Calma 7 Este 0 -- -- 93
2019-04-02 08:00:00 9.3 3 Este 16 Sudeste 0.6 -- -- 90
2019-04-02 07:00:00 9.6 9 Sudeste 27 Sudeste 0 -- -- 86
2019-04-02 06:00:00 8.7 15 Este 30 Este 1.4 -- -- 91
2019-04-02 05:00:00 8.5 3 Nordeste 12 Este 0.2 -- -- 93
2019-04-02 04:00:00 8.6 4 Este 27 Este 0.8 -- -- 89
2019-04-02 03:00:00 8.6 15 Este 35 Este 0.2 -- -- 86
2019-04-02 02:00:00 9.1 19 Este 52 Este 0 -- -- 81
2019-04-02 01:00:00 9.3 24 Este 45 Este 0 -- -- 80
2019-04-02 00:00:00 9.2 25 Este 46 Este 0 -- -- 81
2019-04-01 23:00:00 9.2 24 Este 46 Este 1.2 -- -- 82
2019-04-01 22:00:00 9.4 6 Este 15 Este 1.4 -- -- 93
2019-04-01 21:00:00 9.5 4 Este 8 Este 1.6 -- -- 94
2019-04-01 20:00:00 10.2 4 Este 8 Sudeste 0.8 -- -- 93
2019-04-01 19:00:00 10.3 6 Sudeste 13 Sudeste 1.4 -- -- 92
2019-04-01 18:00:00 10.8 0 Calma 10 Oeste 4.2 -- -- 93
2019-04-01 17:00:00 10.8 2 Nordeste 8 Nordeste 3.4 -- -- 92
2019-04-01 16:00:00 11.5 3 Noroeste 6 Nordeste 1.6 -- -- 91
2019-04-01 15:00:00 11.4 3 Nordeste 14 Noroeste 0.8 -- -- 90
2019-04-01 14:00:00 12.5 10 Oeste 16 Oeste 2.6 -- -- 87
2019-04-01 13:00:00 13.8 6 Noroeste 19 Oeste 0 -- -- 79
2019-04-01 12:00:00 15 6 Oeste 15 Oeste 0 -- -- 76
2019-04-01 11:00:00 13.5 8 Oeste 13 Oeste 0 -- -- 76
2019-04-01 10:00:00 11.8 0 Calma 5 Oeste 0 -- -- 79
2019-04-01 09:00:00 9.3 2 Este 6 Este 0 -- -- 87
2019-04-01 08:00:00 8.6 3 Este 6 Sudeste 0 -- -- 87
2019-04-01 07:00:00 8.1 3 Este 7 Este 0 -- -- 88
2019-04-01 06:00:00 7.4 4 Este 8 Este 0 -- -- 88
2019-04-01 05:00:00 6.5 5 Este 9 Este 0 -- -- 88
2019-04-01 04:00:00 6.7 6 Este 10 Este 0 -- -- 88
2019-04-01 03:00:00 6.7 5 Este 8 Este 0 -- -- 87
2019-04-01 02:00:00 7.3 5 Este 9 Este 0 -- -- 85
2019-04-01 01:00:00 7.6 0 Calma 8 Este 0 -- -- 81
2019-04-01 00:00:00 8.1 6 Este 8 Este 0 -- -- 78
2019-03-31 23:00:00 9.2 5 Este 10 Este 0 -- -- 78
2019-03-31 22:00:00 11 4 Este 7 Norte 0 -- -- 82
2019-03-31 21:00:00 12.2 3 Noroeste 16 Oeste 0 -- -- 78
2019-03-31 20:00:00 14.2 10 Oeste 23 Oeste 0 -- -- 68
2019-03-31 19:00:00 15.1 15 Oeste 27 Oeste 0 -- -- 58
2019-03-31 18:00:00 15.5 14 Oeste 29 Oeste 0 -- -- 56
2019-03-31 17:00:00 15.5 14 Oeste 32 Oeste 0 -- -- 61
2019-03-31 16:00:00 15.7 13 Oeste 32 Oeste 0 -- -- 64
2019-03-31 15:00:00 15.2 16 Oeste 27 Sur 0 -- -- 67
2019-03-31 14:00:00 16.3 13 Sudoeste 27 Oeste 0 -- -- 70
2019-03-31 13:00:00 16.9 12 Oeste 27 Oeste 0 -- -- 73
2019-03-31 12:00:00 15.9 4 Sudoeste 12 Noroeste 0 -- -- 73
2019-03-31 11:00:00 14.7 2 Sur 6 Sudoeste 0 -- -- 76
2019-03-31 10:00:00 12.7 4 Sur 9 Nordeste 0 -- -- 85
2019-03-31 09:00:00 7 5 Este 9 Nordeste 0 -- -- 95
2019-03-31 08:00:00 6.4 5 Este 11 Este 0 -- -- 94
2019-03-31 07:00:00 6.9 7 Este 13 Este 0 -- -- 94
2019-03-31 06:00:00 6.8 5 Sudeste 11 Este 0 -- -- 95
2019-03-31 05:00:00 6.9 8 Este 11 Este 0 -- -- 94
2019-03-31 04:00:00 7.4 5 Este 8 Nordeste 0 -- -- 93
2019-03-31 00:00:00 7 4 Este 9 Este 0 -- -- 95
2019-03-30 23:00:00 7.4 5 Este 9 Este 0 -- -- 93
2019-03-30 22:00:00 8 4 Este 9 Sudeste 0 -- -- 92
2019-03-30 21:00:00 9.7 3 Este 5 Este 0 -- -- 91
2019-03-30 20:00:00 11 2 Sudeste 4 Sudeste 0 -- -- 92
2019-03-30 19:00:00 11.2 2 Nordeste 12 Este 0.2 -- -- 90
2019-03-30 18:00:00 11.4 5 Oeste 19 Oeste 2.4 -- -- 89
2019-03-30 17:00:00 12.4 6 Sudoeste 27 Oeste 0 -- -- 77
2019-03-30 16:00:00 13.7 16 Oeste 27 Oeste 0 -- -- 73
2019-03-30 15:00:00 14.2 11 Sudoeste 28 Oeste 0 -- -- 73
2019-03-30 14:00:00 13.6 18 Oeste 31 Oeste 0 -- -- 74
2019-03-30 13:00:00 14.2 6 Noroeste 24 Oeste 0 -- -- 73
2019-03-30 12:00:00 14.2 14 Oeste 24 Oeste 0 -- -- 72
2019-03-30 11:00:00 14.5 8 Oeste 17 Oeste 0 -- -- 67
2019-03-30 10:00:00 14.2 4 Oeste 9 Oeste 0 -- -- 60
2019-03-30 09:00:00 9.6 4 Este 9 Nordeste 0 -- -- 81
2019-03-30 08:00:00 7.6 3 Este 10 Este 0 -- -- 87
2019-03-30 07:00:00 6.1 4 Sudeste 13 Sudeste 0 -- -- 86
2019-03-30 06:00:00 5.5 7 Este 9 Este 0 -- -- 88
2019-03-30 05:00:00 5.6 3 Este 11 Este 0 -- -- 89
2019-03-30 04:00:00 5.3 6 Este 9 Este 0 -- -- 90
2019-03-30 03:00:00 6 6 Este 9 Este 0 -- -- 89
2019-03-30 02:00:00 6.2 5 Este 10 Este 0 -- -- 89
2019-03-30 01:00:00 6.5 5 Este 9 Este 0 -- -- 90
2019-03-30 00:00:00 7.4 5 Este 10 Este 0 -- -- 87
2019-03-29 23:00:00 7 7 Este 9 Este 0 -- -- 88
2019-03-29 22:00:00 7.8 5 Este 8 Este 0 -- -- 88
2019-03-29 21:00:00 9.5 2 Este 7 Este 0 -- -- 82
2019-03-29 20:00:00 11.3 2 Sudoeste 9 Oeste 0 -- -- 75
2019-03-29 19:00:00 12.9 4 Oeste 16 Noroeste 0 -- -- 66
2019-03-29 18:00:00 13.1 7 Oeste 16 Oeste 0 -- -- 68
2019-03-29 17:00:00 13.6 9 Oeste 20 Oeste 0 -- -- 68
2019-03-29 16:00:00 14.5 13 Oeste 27 Oeste 0 -- -- 65
2019-03-29 15:00:00 14.8 13 Oeste 25 Oeste 0 -- -- 65
2019-03-29 14:00:00 14.1 14 Oeste 26 Oeste 0 -- -- 70
2019-03-29 13:00:00 13.9 10 Oeste 21 Oeste 0 -- -- 74
2019-03-29 12:00:00 14 12 Oeste 22 Oeste 0 -- -- 71
2019-03-29 11:00:00 13.8 12 Oeste 20 Oeste 0 -- -- 74
2019-03-29 10:00:00 14.1 5 Oeste 12 Oeste 0 -- -- 66
2019-03-29 09:00:00 10 4 Nordeste 9 Este 0 -- -- 83
2019-03-29 08:00:00 5.2 5 Este 9 Este 0.2 -- -- 92
2019-03-29 07:00:00 5.3 6 Este 13 Este 0 -- -- 88
2019-03-29 06:00:00 5.1 5 Este 10 Este 0 -- -- 91
2019-03-29 05:00:00 5.8 7 Este 11 Este 0 -- -- 89
2019-03-29 04:00:00 6.6 6 Este 9 Este 0 -- -- 93
2019-03-29 03:00:00 6.2 5 Este 10 Este 0 -- -- 94
2019-03-29 02:00:00 6.7 6 Este 9 Este 0 -- -- 94
2019-03-29 01:00:00 6.9 5 Este 10 Este 0 -- -- 94
2019-03-29 00:00:00 7.8 5 Este 6 Este 0 -- -- 93
2019-03-28 23:00:00 9.4 3 Este 8 Nordeste 0 -- -- 93
2019-03-28 22:00:00 9.7 3 Este 9 Este 0 -- -- 93
2019-03-28 21:00:00 10.2 2 Sudeste 8 Este 0 -- -- 93
2019-03-28 20:00:00 10.9 0 Calma 6 Sudeste 0 -- -- 92
2019-03-28 19:00:00 11.4 3 Sudeste 6 Sudeste 0 -- -- 89
2019-03-28 18:00:00 11.4 3 Sudoeste 21 Oeste 2.4 -- -- 93
2019-03-28 17:00:00 12.1 11 Oeste 23 Oeste 2.2 -- -- 92
2019-03-28 16:00:00 12.7 13 Oeste 22 Sudoeste 0.6 -- -- 89
2019-03-28 15:00:00 -- 3 Noroeste 19 Oeste -- -- -- --
2019-03-28 14:00:00 13 3 Noroeste 13 Oeste 0.2 -- -- 88
2019-03-28 13:00:00 13.1 2 Noroeste 15 Oeste -- -- -- 87
2019-03-28 12:00:00 12.8 6 Oeste 19 Oeste 0 -- -- 86
2019-03-28 11:00:00 13.4 10 Oeste 18 Oeste 0 -- -- 82
2019-03-28 10:00:00 12.5 0 Calma 7 Este 0 -- -- 78
2019-03-28 09:00:00 10.8 4 Este 9 Este 0 -- -- 87
2019-03-28 08:00:00 7.3 5 Nordeste 13 Sudeste 0 -- -- 91
2019-03-28 07:00:00 6.6 5 Este 11 Este 0 -- -- 92
2019-03-28 06:00:00 7 3 Este 10 Este 0 -- -- 90
2019-03-28 05:00:00 6.9 4 Este 11 Este 0 -- -- 91
2019-03-28 04:00:00 7.1 5 Este 9 Este 0 -- -- 91
2019-03-28 03:00:00 7.4 5 Este 13 Sudeste 0 -- -- 91
2019-03-28 02:00:00 7.7 4 Este 10 Este 0 -- -- 89
2019-03-28 01:00:00 7.7 5 Este 8 Este 0 -- -- 88
2019-03-28 00:00:00 8.3 4 Este 6 Este 0 -- -- 88
2019-03-27 23:00:00 9.4 3 Este 10 Este 0 -- -- 84
2019-03-27 22:00:00 10.5 4 Sudeste 11 Este 0 -- -- 82
2019-03-27 21:00:00 11.5 4 Sudeste 8 Sur 0 -- -- 80
2019-03-27 20:00:00 13.5 2 Oeste 13 Noroeste 0 -- -- 78
2019-03-27 19:00:00 14.9 7 Oeste 23 Oeste 0 -- -- 66
2019-03-27 18:00:00 15.5 10 Oeste 25 Oeste 0 -- -- 65
2019-03-27 17:00:00 15.5 12 Oeste 28 Oeste 0 -- -- 70
2019-03-27 16:00:00 15 15 Oeste 27 Oeste 0 -- -- 73
2019-03-27 15:00:00 15.5 12 Oeste 26 Oeste 0 -- -- 73
2019-03-27 14:00:00 15.9 14 Oeste 26 Oeste 0 -- -- 70
2019-03-27 13:00:00 16 14 Oeste 28 Oeste 0 -- -- 74
2019-03-27 12:00:00 15.9 16 Oeste 26 Oeste 0 -- -- 73
2019-03-27 11:00:00 16 11 Oeste 19 Oeste 0 -- -- 71
2019-03-27 10:00:00 15.9 4 Oeste 10 Oeste 0 -- -- 69
2019-03-27 09:00:00 11.9 5 Este 9 Este 0 -- -- 80
2019-03-27 08:00:00 8.1 3 Este 11 Este 0 -- -- 93
2019-03-27 07:00:00 7.3 6 Este 9 Este 0 -- -- 91
2019-03-27 06:00:00 7.6 5 Este 10 Este 0 -- -- 92
2019-03-27 05:00:00 7.9 6 Este 8 Este 0 -- -- 90
2019-03-27 04:00:00 8 4 Este 9 Este 0 -- -- 91
2019-03-27 03:00:00 9 5 Este 10 Este 0 -- -- 90
2019-03-27 02:00:00 9.2 6 Este 8 Este 0 -- -- 92
2019-03-27 01:00:00 9.4 2 Este 6 Este 0 -- -- 91
2019-03-27 00:00:00 8.8 5 Este 10 Este 0 -- -- 88